Time;durP1;ratioP1;P1;durP2;ratioP2;P2;SDS_P1;SDS_P2;PMS_P1;PMS_P2;Temp;Humidity;BMP_temperature;BMP_pressure;BME280_temperature;BME280_humidity;BME280_pressure;Samples;Min_cycle;Max_cycle;Signal;HPM_P1;HPM_P2
2024/04/06 00:00:51;;;;;;;11.80;3.55;;;15.30;1.00;;;;;;5032625;23;20174;-88
2024/04/06 00:03:09;;;;;;;17.27;4.20;;;15.40;1.00;;;;;;5011762;23;20594;-88
2024/04/06 00:05:26;;;;;;;8.32;3.22;;;15.40;1.00;;;;;;5012452;23;20292;-89
2024/04/06 00:07:43;;;;;;;8.23;3.53;;;15.40;1.00;;;;;;5033504;23;20179;-88
2024/04/06 00:10:01;;;;;;;15.18;3.65;;;15.50;1.00;;;;;;5033527;23;20177;-88
2024/04/06 00:12:19;;;;;;;11.68;2.80;;;15.50;1.00;;;;;;5011776;23;20194;-87
2024/04/06 00:14:37;;;;;;;16.45;4.53;;;15.50;1.00;;;;;;5033620;23;20241;-88
2024/04/06 00:16:54;;;;;;;13.82;3.05;;;15.50;1.00;;;;;;5010974;23;20175;-89
2024/04/06 00:19:12;;;;;;;12.07;3.78;;;15.50;1.00;;;;;;5011257;23;20219;-88
2024/04/06 00:21:29;;;;;;;15.40;3.78;;;15.50;1.00;;;;;;5011293;23;20167;-88
2024/04/06 00:23:48;;;;;;;15.68;3.72;;;15.50;1.00;;;;;;5011525;23;20174;-88
2024/04/06 00:26:05;;;;;;;17.30;4.40;;;15.60;1.00;;;;;;5033136;23;20177;-88
2024/04/06 00:28:23;;;;;;;14.50;3.03;;;15.60;1.00;;;;;;5011087;23;20182;-89
2024/04/06 00:30:40;;;;;;;9.80;3.35;;;15.60;1.00;;;;;;5032634;23;20178;-89
2024/04/06 00:32:57;;;;;;;14.50;4.25;;;15.60;1.00;;;;;;5032687;23;20221;-88
2024/04/06 00:35:18;;;;;;;6.72;2.75;;;15.60;1.00;;;;;;5011440;23;20539;-88
2024/04/06 00:37:35;;;;;;;14.77;2.83;;;15.60;1.00;;;;;;5010623;23;20175;-89
2024/04/06 00:39:52;;;;;;;9.82;3.65;;;15.60;1.00;;;;;;5010897;23;20206;-88
2024/04/06 00:42:10;;;;;;;11.95;4.25;;;15.60;1.00;;;;;;5011380;23;20174;-88
2024/04/06 00:44:28;;;;;;;14.95;4.25;;;15.50;1.00;;;;;;5031883;23;20172;-89
2024/04/06 00:46:46;;;;;;;12.05;2.92;;;15.50;1.00;;;;;;5010635;23;20173;-88
2024/04/06 00:49:04;;;;;;;11.18;3.35;;;15.50;1.00;;;;;;5010717;23;20183;-88
2024/04/06 00:51:24;;;;;;;12.85;4.15;;;15.50;1.00;;;;;;5031821;23;20169;-88
2024/04/06 00:53:41;;;;;;;11.10;4.32;;;15.50;1.00;;;;;;5031415;23;20719;-88
2024/04/06 00:56:00;;;;;;;12.43;4.43;;;15.50;1.00;;;;;;5010508;23;20286;-88
2024/04/06 00:58:19;;;;;;;11.65;3.65;;;15.40;1.00;;;;;;5031814;23;20178;-89
2024/04/06 01:00:36;;;;;;;19.05;4.47;;;15.50;1.00;;;;;;5032175;23;20301;-88
2024/04/06 01:02:55;;;;;;;7.63;3.72;;;15.40;1.00;;;;;;5031591;23;20241;-88
2024/04/06 01:05:13;;;;;;;15.23;4.57;;;15.30;18.60;;;;;;5010728;23;20672;-88
2024/04/06 01:07:31;;;;;;;27.83;6.70;;;15.30;33.20;;;;;;5031511;23;20178;-89
2024/04/06 01:09:49;;;;;;;9.38;3.85;;;15.20;60.80;;;;;;5030954;23;20173;-89
2024/04/06 01:12:06;;;;;;;14.95;5.45;;;15.30;61.00;;;;;;5030752;23;20177;-88
2024/04/06 01:14:26;;;;;;;9.52;3.78;;;15.30;54.80;;;;;;5010892;23;20225;-88
2024/04/06 01:16:44;;;;;;;7.55;3.15;;;15.40;43.00;;;;;;5032016;23;20225;-88
2024/04/06 01:19:01;;;;;;;15.30;4.63;;;15.40;43.70;;;;;;5031632;23;20177;-88
2024/04/06 01:21:19;;;;;;;7.75;4.03;;;15.40;43.00;;;;;;5010488;23;20182;-88
2024/04/06 01:23:36;;;;;;;13.02;4.75;;;15.50;39.10;;;;;;5031305;23;20224;-88
2024/04/06 01:25:55;;;;;;;8.05;3.40;;;15.50;35.10;;;;;;5032367;23;20573;-89
2024/04/06 01:28:12;;;;;;;7.53;3.88;;;15.50;33.40;;;;;;5032066;23;20178;-89
2024/04/06 01:30:30;;;;;;;11.80;4.30;;;15.50;33.40;;;;;;5011360;23;20226;-88
2024/04/06 01:32:52;;;;;;;9.52;4.60;;;15.50;28.10;;;;;;5011063;23;20242;-89
2024/04/06 01:35:09;;;;;;;11.38;4.15;;;15.50;33.40;;;;;;5032080;23;20842;-88
2024/04/06 01:37:27;;;;;;;6.80;4.00;;;15.50;34.00;;;;;;5032200;23;20603;-88
2024/04/06 01:39:44;;;;;;;10.27;4.45;;;15.50;36.20;;;;;;5011308;23;20221;-89
2024/04/06 01:42:02;;;;;;;10.77;5.07;;;15.50;36.20;;;;;;5011371;23;20365;-89
2024/04/06 01:44:21;;;;;;;10.35;5.32;;;15.60;35.70;;;;;;5011565;23;20172;-88
2024/04/06 01:46:39;;;;;;;14.93;5.78;;;15.60;35.50;;;;;;5011419;23;20174;-88
2024/04/06 01:48:58;;;;;;;12.50;5.68;;;15.60;36.60;;;;;;5032379;23;20198;-88
2024/04/06 01:51:15;;;;;;;7.88;5.00;;;15.70;34.30;;;;;;5032178;23;20169;-89
2024/04/06 01:53:33;;;;;;;13.45;5.50;;;15.60;40.30;;;;;;5011280;23;20668;-88
2024/04/06 01:55:50;;;;;;;9.98;5.43;;;15.60;55.90;;;;;;5031838;23;20672;-89
2024/04/06 01:58:08;;;;;;;15.30;6.45;;;15.50;66.00;;;;;;5011091;23;20255;-88
2024/04/06 02:00:25;;;;;;;7.93;5.18;;;15.40;98.40;;;;;;5032171;23;20181;-88
2024/04/06 02:02:42;;;;;;;12.30;5.22;;;15.30;99.90;;;;;;5011233;23;20210;-88
2024/04/06 02:05:00;;;;;;;13.00;6.07;;;15.30;99.90;;;;;;5010990;23;20252;-88
2024/04/06 02:07:17;;;;;;;9.23;5.90;;;15.20;99.90;;;;;;5012084;23;20709;-88
2024/04/06 02:09:35;;;;;;;14.90;6.55;;;15.20;99.90;;;;;;5011423;23;20180;-88
2024/04/06 02:11:52;;;;;;;10.05;5.72;;;15.30;99.90;;;;;;5011121;23;20182;-88
2024/04/06 02:14:10;;;;;;;7.90;5.50;;;15.20;99.90;;;;;;5010834;23;20702;-88
2024/04/06 02:16:27;;;;;;;12.25;6.10;;;15.20;99.90;;;;;;5031706;23;20302;-88
2024/04/06 02:18:45;;;;;;;11.20;5.55;;;15.20;99.90;;;;;;5011065;23;20220;-88
2024/04/06 02:21:02;;;;;;;11.18;5.63;;;15.20;99.90;;;;;;5010468;23;20192;-88
2024/04/06 02:23:20;;;;;;;13.30;5.78;;;15.30;99.90;;;;;;5010430;23;20203;-88
2024/04/06 02:25:37;;;;;;;8.43;5.32;;;15.30;99.90;;;;;;5010657;23;20178;-88
2024/04/06 02:27:55;;;;;;;12.73;5.47;;;15.30;99.90;;;;;;5031853;23;20236;-88
2024/04/06 02:30:12;;;;;;;9.65;5.55;;;15.30;99.90;;;;;;5031916;23;20175;-88
2024/04/06 02:32:30;;;;;;;8.63;5.82;;;15.30;99.90;;;;;;5011184;23;20255;-88
2024/04/06 02:34:47;;;;;;;10.57;5.38;;;15.30;99.90;;;;;;5011074;23;20199;-88
2024/04/06 02:37:05;;;;;;;11.02;4.82;;;15.40;99.90;;;;;;5032148;23;20166;-88
2024/04/06 02:39:23;;;;;;;9.25;5.13;;;15.40;99.90;;;;;;5010198;23;20210;-87
2024/04/06 02:41:40;;;;;;;8.27;4.53;;;15.40;99.90;;;;;;5011252;23;20171;-88
2024/04/06 02:43:57;;;;;;;14.38;5.03;;;15.40;99.90;;;;;;5032137;23;20173;-88
2024/04/06 02:46:16;;;;;;;6.05;4.25;;;15.40;99.90;;;;;;5012670;23;20174;-88
2024/04/06 02:48:33;;;;;;;13.60;4.47;;;15.40;99.90;;;;;;5033727;23;20166;-88
2024/04/06 02:50:51;;;;;;;9.18;4.15;;;15.40;99.90;;;;;;5033780;23;20277;-88
2024/04/06 02:53:08;;;;;;;7.55;4.20;;;15.30;99.90;;;;;;5033490;23;20308;-88
2024/04/06 02:55:25;;;;;;;8.07;3.83;;;15.20;99.90;;;;;;5012227;23;20246;-89
2024/04/06 02:57:43;;;;;;;9.88;3.50;;;15.20;99.90;;;;;;5034147;23;20169;-88
2024/04/06 03:00:01;;;;;;;5.93;3.35;;;15.00;99.90;;;;;;5034450;23;20239;-88
2024/04/06 03:02:19;;;;;;;6.75;3.92;;;15.00;99.90;;;;;;5012696;23;20229;-89
2024/04/06 03:04:38;;;;;;;6.88;3.35;;;15.00;99.90;;;;;;5033624;23;20222;-88
2024/04/06 03:06:55;;;;;;;7.53;3.55;;;15.10;99.90;;;;;;5033854;23;20541;-88
2024/04/06 03:09:13;;;;;;;10.75;3.83;;;15.10;99.90;;;;;;5033446;23;20174;-88
2024/04/06 03:11:30;;;;;;;5.47;3.63;;;15.10;99.90;;;;;;5033083;23;20167;-88
2024/04/06 03:13:48;;;;;;;8.57;4.13;;;15.00;99.90;;;;;;5033130;23;20205;-88
2024/04/06 03:16:06;;;;;;;9.70;4.30;;;15.00;99.90;;;;;;5011804;23;20276;-88
2024/04/06 03:18:23;;;;;;;5.80;3.42;;;15.00;99.90;;;;;;5011369;23;20245;-88
2024/04/06 03:20:40;;;;;;;5.75;3.63;;;15.00;99.90;;;;;;5033287;23;20639;-88
2024/04/06 03:23:05;;;;;;;8.60;3.95;;;15.00;99.90;;;;;;5012176;23;20187;-88
2024/04/06 03:25:23;;;;;;;7.43;3.60;;;15.00;99.90;;;;;;5033407;23;20221;-88
2024/04/06 03:27:40;;;;;;;8.25;4.47;;;14.90;99.90;;;;;;5033112;23;20210;-88
2024/04/06 03:29:57;;;;;;;9.82;3.55;;;14.80;99.90;;;;;;5033094;23;20177;-88
2024/04/06 03:32:18;;;;;;;9.57;3.95;;;14.80;99.90;;;;;;5012219;23;20728;-88
2024/04/06 03:34:35;;;;;;;10.30;4.30;;;14.70;99.90;;;;;;5033441;23;20262;-88
2024/04/06 03:36:56;;;;;;;11.50;4.03;;;14.60;99.90;;;;;;5033271;23;20176;-88
2024/04/06 03:39:14;;;;;;;6.75;4.18;;;14.60;99.90;;;;;;5012736;23;20264;-88
2024/04/06 03:41:32;;;;;;;9.90;4.75;;;14.50;99.90;;;;;;5033230;23;20499;-88
2024/04/06 03:43:49;;;;;;;10.98;4.82;;;14.50;99.90;;;;;;5034217;23;20163;-88
2024/04/06 03:46:07;;;;;;;13.15;4.15;;;14.50;99.90;;;;;;5033157;23;20177;-88
2024/04/06 03:48:26;;;;;;;8.43;3.78;;;14.40;99.90;;;;;;5034231;23;20202;-88
2024/04/06 03:50:43;;;;;;;12.25;4.45;;;14.40;99.90;;;;;;5034631;23;20181;-88
2024/04/06 03:53:01;;;;;;;7.15;3.78;;;14.30;99.90;;;;;;5012562;23;20196;-88
2024/04/06 03:55:18;;;;;;;9.48;3.58;;;14.30;99.90;;;;;;5011688;23;20331;-88
2024/04/06 03:57:36;;;;;;;10.57;4.35;;;14.30;99.90;;;;;;5011994;23;20529;-88
2024/04/06 03:59:53;;;;;;;6.82;3.78;;;14.30;99.90;;;;;;5032928;23;20662;-88
2024/04/06 04:02:10;;;;;;;5.72;3.25;;;14.30;99.90;;;;;;5032783;23;20169;-89
2024/04/06 04:04:28;;;;;;;5.65;3.42;;;14.30;99.90;;;;;;5012471;23;20251;-88
2024/04/06 04:06:45;;;;;;;7.63;3.58;;;14.30;99.90;;;;;;5012240;23;20163;-88
2024/04/06 04:09:03;;;;;;;7.75;3.65;;;14.20;99.90;;;;;;5033121;23;20178;-88
2024/04/06 04:11:20;;;;;;;6.05;3.28;;;14.20;99.90;;;;;;5012137;23;20178;-88
2024/04/06 04:13:38;;;;;;;10.80;3.25;;;14.20;99.90;;;;;;5012106;23;20358;-89
2024/04/06 04:15:55;;;;;;;5.32;2.85;;;14.10;99.90;;;;;;5012090;23;20208;-88
2024/04/06 04:18:13;;;;;;;5.78;3.42;;;14.20;99.90;;;;;;5012118;23;20167;-88
2024/04/06 04:20:30;;;;;;;5.63;3.13;;;14.20;99.90;;;;;;5012367;23;20530;-88
2024/04/06 04:22:48;;;;;;;6.55;3.20;;;14.10;99.90;;;;;;5011990;23;20206;-88
2024/04/06 04:25:05;;;;;;;6.82;3.30;;;14.10;99.90;;;;;;5033238;23;20281;-88
2024/04/06 04:27:23;;;;;;;4.22;3.20;;;14.10;99.90;;;;;;5011721;23;20173;-88
2024/04/06 04:29:41;;;;;;;9.98;3.33;;;14.10;99.90;;;;;;5012121;23;20188;-88
2024/04/06 04:31:58;;;;;;;7.28;3.50;;;14.10;99.90;;;;;;5032897;23;20170;-88
2024/04/06 04:34:16;;;;;;;8.38;3.67;;;14.00;99.90;;;;;;5012021;23;20222;-88
2024/04/06 04:36:35;;;;;;;10.48;4.10;;;14.00;99.90;;;;;;5033283;23;20173;-88
2024/04/06 04:38:52;;;;;;;7.80;2.83;;;14.00;99.90;;;;;;5011821;23;20212;-88
2024/04/06 04:41:09;;;;;;;7.55;2.90;;;14.00;99.90;;;;;;5011825;23;20181;-88
2024/04/06 04:43:27;;;;;;;8.85;2.95;;;14.10;99.90;;;;;;5033738;23;20162;-88
2024/04/06 04:45:44;;;;;;;9.57;3.85;;;14.00;99.90;;;;;;5032517;23;20209;-88
2024/04/06 04:48:01;;;;;;;6.65;4.03;;;14.00;99.90;;;;;;5032871;23;20173;-87
2024/04/06 04:50:19;;;;;;;13.88;3.47;;;14.10;99.90;;;;;;5032887;23;20175;-89
2024/04/06 04:52:36;;;;;;;9.18;3.50;;;14.10;99.90;;;;;;5032702;23;20302;-88
2024/04/06 04:54:53;;;;;;;10.48;3.55;;;14.20;99.90;;;;;;5011845;23;20202;-87
2024/04/06 04:57:10;;;;;;;6.13;3.20;;;14.30;99.90;;;;;;5011247;23;20174;-88
2024/04/06 04:59:28;;;;;;;7.00;3.15;;;14.40;99.90;;;;;;5010999;23;20190;-87
2024/04/06 05:01:48;;;;;;;9.45;3.20;;;14.50;99.90;;;;;;5032512;23;20246;-88
2024/04/06 05:04:05;;;;;;;8.70;4.32;;;14.60;99.90;;;;;;5031219;23;20246;-88
2024/04/06 05:06:23;;;;;;;6.65;3.65;;;14.60;99.90;;;;;;5030739;23;20675;-88
2024/04/06 05:08:40;;;;;;;8.73;3.47;;;14.60;99.90;;;;;;5010405;23;20206;-88
2024/04/06 05:10:58;;;;;;;8.07;4.13;;;14.50;99.90;;;;;;5031827;23;20169;-88
2024/04/06 05:13:19;;;;;;;11.80;4.03;;;14.40;99.90;;;;;;5010541;23;20292;-87
2024/04/06 05:15:36;;;;;;;9.27;3.67;;;14.40;99.90;;;;;;5032269;23;20250;-88
2024/04/06 05:17:54;;;;;;;5.35;3.60;;;14.30;99.90;;;;;;5032722;23;20175;-88
2024/04/06 05:20:12;;;;;;;7.60;3.70;;;14.30;99.90;;;;;;5011415;23;20175;-89
2024/04/06 05:22:29;;;;;;;5.85;2.90;;;14.30;99.90;;;;;;5032596;23;20163;-88
2024/04/06 05:24:47;;;;;;;7.10;2.60;;;14.40;99.90;;;;;;5011045;23;20194;-88
2024/04/06 05:27:04;;;;;;;7.55;2.95;;;14.40;99.90;;;;;;5031549;23;20533;-87
2024/04/06 05:29:22;;;;;;;4.95;2.78;;;14.30;99.90;;;;;;5011098;23;20215;-88
2024/04/06 05:31:39;;;;;;;6.97;3.42;;;14.20;99.90;;;;;;5010867;23;20174;-87
2024/04/06 05:33:57;;;;;;;8.48;2.90;;;14.30;99.90;;;;;;5010721;23;20258;-88
2024/04/06 05:36:16;;;;;;;8.43;2.33;;;14.30;99.90;;;;;;5031537;23;20696;-88
2024/04/06 05:38:34;;;;;;;5.68;2.70;;;14.30;99.90;;;;;;5010609;23;20179;-88
2024/04/06 05:40:52;;;;;;;4.97;2.60;;;14.30;99.90;;;;;;5031203;23;20552;-87
2024/04/06 05:43:10;;;;;;;7.13;2.72;;;14.30;99.90;;;;;;5010290;23;20176;-88
2024/04/06 05:45:28;;;;;;;6.90;2.78;;;14.40;99.90;;;;;;5031228;23;20180;-88
2024/04/06 05:47:46;;;;;;;8.10;2.58;;;14.30;99.90;;;;;;5011400;23;20206;-87
2024/04/06 05:50:05;;;;;;;12.05;3.53;;;14.30;99.90;;;;;;5031268;23;20167;-88
2024/04/06 05:52:22;;;;;;;11.05;3.47;;;14.40;99.90;;;;;;5032095;23;20628;-87
2024/04/06 05:54:41;;;;;;;9.15;2.80;;;14.40;99.90;;;;;;5031839;23;20217;-87
2024/04/06 05:56:58;;;;;;;8.55;2.38;;;14.40;99.90;;;;;;5031902;23;20196;-88
2024/04/06 05:59:16;;;;;;;3.55;2.40;;;14.40;99.90;;;;;;5031681;23;20215;-88
2024/04/06 06:01:48;;;;;;;8.50;2.60;;;14.50;99.90;;;;;;5031862;23;20214;-88
2024/04/06 06:04:06;;;;;;;5.75;2.30;;;14.50;99.90;;;;;;5030855;23;20170;-88
2024/04/06 06:06:23;;;;;;;6.95;2.42;;;14.60;99.90;;;;;;5031390;23;20178;-88
2024/04/06 06:08:41;;;;;;;10.45;2.55;;;14.70;99.90;;;;;;5032659;23;20179;-88
2024/04/06 06:11:04;;;;;;;7.10;2.35;;;14.70;99.90;;;;;;5010161;23;20182;-88
2024/04/06 06:13:22;;;;;;;6.18;2.40;;;14.60;99.90;;;;;;5030933;23;20225;-88
2024/04/06 06:15:40;;;;;;;3.30;1.92;;;14.70;99.90;;;;;;5009701;23;20344;-88
2024/04/06 06:17:57;;;;;;;7.13;1.88;;;14.70;99.90;;;;;;5032045;23;20495;-88
2024/04/06 06:20:14;;;;;;;4.93;2.38;;;14.70;99.90;;;;;;5010818;23;20166;-88
2024/04/06 06:22:31;;;;;;;7.38;2.03;;;14.70;99.90;;;;;;5032241;23;20173;-88
2024/04/06 06:24:49;;;;;;;2.92;1.60;;;14.90;99.90;;;;;;5010996;23;20171;-88
2024/04/06 06:27:06;;;;;;;4.00;1.70;;;14.90;99.90;;;;;;5032132;23;20206;-88
2024/04/06 06:29:24;;;;;;;5.05;2.33;;;15.00;99.90;;;;;;5032197;23;20190;-88
2024/04/06 06:31:44;;;;;;;5.18;2.20;;;14.90;99.90;;;;;;5011088;23;20221;-88
2024/04/06 06:34:02;;;;;;;6.03;2.00;;;14.90;99.90;;;;;;5031897;23;20197;-88
2024/04/06 06:36:19;;;;;;;4.40;2.10;;;14.90;99.90;;;;;;5011170;23;20202;-88
2024/04/06 06:38:36;;;;;;;6.88;2.50;;;14.90;99.90;;;;;;5031892;23;20170;-88
2024/04/06 06:40:54;;;;;;;4.03;1.88;;;15.00;99.90;;;;;;5011053;23;20163;-88
2024/04/06 06:43:11;;;;;;;4.32;2.47;;;15.00;99.90;;;;;;5031984;23;20213;-88
2024/04/06 06:45:29;;;;;;;7.10;1.83;;;15.00;99.90;;;;;;5010980;23;20182;-88
2024/04/06 06:47:46;;;;;;;5.88;2.22;;;15.00;99.90;;;;;;5032287;23;20198;-88
2024/04/06 06:50:03;;;;;;;8.55;1.92;;;15.10;99.90;;;;;;5031919;23;20232;-87
2024/04/06 06:52:20;;;;;;;7.03;1.98;;;15.20;99.90;;;;;;5010952;23;20171;-88
2024/04/06 06:54:41;;;;;;;5.47;2.10;;;15.20;99.90;;;;;;5032681;23;20225;-88
2024/04/06 06:56:59;;;;;;;5.45;2.50;;;15.30;99.90;;;;;;5031777;23;20652;-89
2024/04/06 06:59:16;;;;;;;3.05;2.00;;;15.30;99.90;;;;;;5011077;23;20178;-88
2024/04/06 07:01:34;;;;;;;6.32;2.33;;;15.30;99.90;;;;;;5031646;23;20277;-88
2024/04/06 07:03:52;;;;;;;5.57;1.85;;;15.40;99.90;;;;;;5031930;23;20278;-88
2024/04/06 07:06:15;;;;;;;4.03;1.85;;;15.40;99.90;;;;;;5030816;23;20173;-89
2024/04/06 07:08:33;;;;;;;6.88;2.47;;;15.50;99.90;;;;;;5031527;23;20179;-90
2024/04/06 07:10:50;;;;;;;3.95;2.00;;;15.60;99.90;;;;;;5031357;23;20167;-87
2024/04/06 07:13:08;;;;;;;6.15;2.88;;;15.60;99.90;;;;;;5010220;23;20175;-89
2024/04/06 07:15:26;;;;;;;9.35;2.22;;;15.60;99.90;;;;;;5009815;23;20279;-89
2024/04/06 07:17:43;;;;;;;10.68;2.72;;;15.70;99.90;;;;;;5031652;23;20692;-89
2024/04/06 07:20:00;;;;;;;6.65;2.13;;;15.80;99.90;;;;;;5010566;23;20175;-88
2024/04/06 07:22:19;;;;;;;8.52;3.92;;;15.80;99.90;;;;;;5032583;23;20159;-89
2024/04/06 07:24:36;;;;;;;5.05;2.28;;;15.90;99.90;;;;;;5031355;23;20173;-89
2024/04/06 07:26:53;;;;;;;4.30;2.63;;;15.90;99.90;;;;;;5031401;23;20165;-89
2024/04/06 07:29:11;;;;;;;6.38;2.33;;;16.00;99.90;;;;;;5031804;23;20683;-89
2024/04/06 07:31:28;;;;;;;3.65;2.25;;;16.00;99.90;;;;;;5033179;23;20174;-88
2024/04/06 07:33:47;;;;;;;7.82;2.60;;;16.00;99.90;;;;;;5011667;23;20169;-88
2024/04/06 07:36:05;;;;;;;7.80;2.50;;;16.10;99.90;;;;;;5033223;23;20194;-88
2024/04/06 07:38:25;;;;;;;6.60;2.47;;;16.10;99.90;;;;;;5012228;23;20287;-88
2024/04/06 07:40:43;;;;;;;4.15;1.83;;;16.20;99.90;;;;;;5032989;23;20644;-88
2024/04/06 07:43:01;;;;;;;7.05;2.53;;;16.30;99.90;;;;;;5032467;23;20533;-89
2024/04/06 07:45:18;;;;;;;6.90;1.90;;;16.40;99.90;;;;;;5031766;23;20232;-89
2024/04/06 07:47:37;;;;;;;6.22;2.30;;;16.50;99.90;;;;;;5032875;23;20177;-88
2024/04/06 07:49:55;;;;;;;11.73;2.75;;;16.60;99.90;;;;;;5033360;23;20250;-88
2024/04/06 07:52:12;;;;;;;3.72;1.95;;;16.60;99.90;;;;;;5033267;23;20249;-88
2024/04/06 07:54:29;;;;;;;4.80;2.58;;;16.60;99.90;;;;;;5033429;23;20178;-88
2024/04/06 07:56:47;;;;;;;6.30;2.35;;;16.60;99.90;;;;;;5011769;23;20174;-88
2024/04/06 07:59:05;;;;;;;5.57;2.20;;;16.70;99.90;;;;;;5033667;23;20171;-88
2024/04/06 08:01:23;;;;;;;5.78;1.77;;;16.70;99.90;;;;;;5032182;23;20664;-89
2024/04/06 08:03:40;;;;;;;4.55;1.77;;;16.60;99.90;;;;;;5012103;23;20177;-88
2024/04/06 08:06:00;;;;;;;6.05;2.00;;;16.70;99.90;;;;;;5032461;23;20202;-88
2024/04/06 08:08:19;;;;;;;4.50;1.80;;;16.80;99.90;;;;;;5011999;23;20713;-88
2024/04/06 08:10:37;;;;;;;4.30;2.25;;;17.00;99.90;;;;;;5032827;23;20519;-88
2024/04/06 08:12:55;;;;;;;6.45;1.98;;;17.10;99.90;;;;;;5012236;23;20220;-88
2024/04/06 08:15:13;;;;;;;10.75;2.05;;;17.20;99.90;;;;;;5011634;23;20203;-88
2024/04/06 08:17:31;;;;;;;7.97;1.95;;;17.30;99.90;;;;;;5032778;23;20167;-88
2024/04/06 08:19:48;;;;;;;3.58;1.50;;;17.40;99.90;;;;;;5033972;23;20234;-89
2024/04/06 08:22:05;;;;;;;4.43;1.65;;;17.60;99.90;;;;;;5011997;23;20733;-89
2024/04/06 08:24:23;;;;;;;3.30;1.67;;;17.60;99.90;;;;;;5033175;23;20311;-89
2024/04/06 08:26:40;;;;;;;6.85;1.48;;;17.70;41.30;;;;;;5032962;23;20197;-87
2024/04/06 08:29:00;;;;;;;3.53;1.75;;;17.80;35.60;;;;;;5012210;23;20171;-88
2024/04/06 08:31:17;;;;;;;3.63;1.63;;;17.90;25.30;;;;;;5012742;23;20171;-88
2024/04/06 08:33:35;;;;;;;5.40;1.55;;;18.00;20.60;;;;;;5012259;23;20168;-88
2024/04/06 08:36:00;;;;;;;6.20;1.58;;;18.00;15.80;;;;;;5011713;23;20202;-88
2024/04/06 08:38:17;;;;;;;5.43;1.42;;;18.10;4.00;;;;;;5032860;23;20209;-88
2024/04/06 08:40:40;;;;;;;5.60;1.42;;;18.20;1.00;;;;;;5033176;23;20301;-90
2024/04/06 08:43:02;;;;;;;3.42;1.65;;;18.30;1.00;;;;;;5032498;23;20629;-89
2024/04/06 08:45:21;;;;;;;3.35;1.45;;;18.30;1.00;;;;;;5032653;23;20227;-87
2024/04/06 08:47:40;;;;;;;2.95;1.58;;;18.30;1.00;;;;;;5032776;23;20637;-89
2024/04/06 08:50:00;;;;;;;6.50;1.58;;;18.40;1.00;;;;;;5033103;23;20181;-89
2024/04/06 08:52:17;;;;;;;3.25;1.25;;;18.40;1.00;;;;;;5032885;23;20198;-90
2024/04/06 08:54:37;;;;;;;3.65;1.48;;;18.50;1.00;;;;;;5011650;23;20203;-89
2024/04/06 08:56:59;;;;;;;7.43;1.52;;;18.50;1.00;;;;;;5032463;23;20256;-89
2024/04/06 08:59:17;;;;;;;2.92;1.33;;;18.50;1.00;;;;;;5032679;23;20170;-90
2024/04/06 09:01:34;;;;;;;3.92;1.73;;;18.60;1.00;;;;;;5032154;23;20173;-90
2024/04/06 09:03:52;;;;;;;5.18;1.73;;;18.50;1.00;;;;;;5032820;23;20167;-89
2024/04/06 09:06:19;;;;;;;6.75;1.65;;;18.60;1.00;;;;;;5011938;23;20669;-89
2024/04/06 09:08:37;;;;;;;4.20;1.20;;;18.60;1.00;;;;;;5032635;23;20255;-89
2024/04/06 09:10:57;;;;;;;2.53;1.50;;;18.60;1.00;;;;;;5012121;23;20173;-88
2024/04/06 09:13:14;;;;;;;3.65;1.45;;;18.60;1.00;;;;;;5032232;23;20177;-89
2024/04/06 09:15:32;;;;;;;5.28;1.63;;;18.70;1.00;;;;;;5011377;23;20230;-89
2024/04/06 09:17:52;;;;;;;8.43;2.03;;;18.70;1.00;;;;;;5032720;23;20174;-88
2024/04/06 09:20:12;;;;;;;8.02;1.45;;;18.80;1.00;;;;;;5032674;23;20875;-89
2024/04/06 09:22:29;;;;;;;7.25;1.70;;;18.80;1.00;;;;;;5011210;23;20175;-89
2024/04/06 09:24:53;;;;;;;4.70;1.95;;;18.80;1.00;;;;;;5011393;23;20812;-89
2024/04/06 09:27:18;;;;;;;9.90;1.33;;;18.80;1.00;;;;;;5032205;23;20567;-89
2024/04/06 09:29:36;;;;;;;3.58;1.50;;;18.80;1.00;;;;;;5033555;23;20170;-89
2024/04/06 09:31:53;;;;;;;12.32;1.88;;;18.90;1.00;;;;;;5032072;23;20190;-89
2024/04/06 09:34:11;;;;;;;3.83;1.55;;;19.00;1.00;;;;;;5031143;23;20723;-89
2024/04/06 09:36:31;;;;;;;3.70;1.50;;;19.10;1.00;;;;;;5030306;23;20201;-89
2024/04/06 09:38:49;;;;;;;4.10;1.48;;;19.10;1.00;;;;;;5029080;23;20207;-89
2024/04/06 09:41:08;;;;;;;3.38;1.45;;;19.20;1.00;;;;;;5030074;23;20225;-88
2024/04/06 09:43:27;;;;;;;5.35;1.70;;;19.30;1.00;;;;;;5010718;23;20171;-88
2024/04/06 09:45:44;;;;;;;5.95;1.63;;;19.30;1.00;;;;;;5011134;23;20508;-88
2024/04/06 09:48:02;;;;;;;3.13;1.52;;;19.40;1.00;;;;;;5010966;23;20204;-88
2024/04/06 09:50:20;;;;;;;7.65;1.35;;;19.40;1.00;;;;;;5011051;23;20178;-88
2024/04/06 09:52:37;;;;;;;6.35;1.45;;;19.50;1.00;;;;;;5031630;23;20197;-88
2024/04/06 09:54:55;;;;;;;3.63;1.52;;;19.50;1.00;;;;;;5010878;23;20210;-89
2024/04/06 09:57:14;;;;;;;5.03;1.58;;;19.50;1.00;;;;;;5032093;23;20201;-89
2024/04/06 09:59:31;;;;;;;6.18;1.30;;;19.50;1.00;;;;;;5032319;23;20166;-87
2024/04/06 10:01:52;;;;;;;5.72;1.33;;;19.50;1.00;;;;;;5032410;23;20200;-88
2024/04/06 10:04:26;;;;;;;7.78;1.63;;;19.60;1.00;;;;;;5032126;23;20197;-88
2024/04/06 10:06:44;;;;;;;3.90;1.90;;;19.70;1.00;;;;;;5011243;23;20515;-88
2024/04/06 10:09:09;;;;;;;7.75;2.90;;;19.80;1.00;;;;;;5031952;23;20251;-88
2024/04/06 10:11:31;;;;;;;5.65;2.72;;;19.90;1.00;;;;;;5032558;23;20639;-88
2024/04/06 10:14:05;;;;;;;4.15;1.75;;;20.00;1.00;;;;;;5032387;23;20173;-88
2024/04/06 10:16:25;;;;;;;5.63;1.88;;;20.00;1.00;;;;;;5032402;23;20706;-88
2024/04/06 10:18:42;;;;;;;6.95;1.55;;;20.00;1.00;;;;;;5032839;23;20169;-88
2024/04/06 10:21:10;;;;;;;8.10;1.30;;;20.10;1.00;;;;;;5032788;23;20232;-88
2024/04/06 10:23:39;;;;;;;3.42;1.27;;;20.20;1.00;;;;;;5032035;23;20186;-88
2024/04/06 10:26:01;;;;;;;4.18;1.15;;;20.20;1.00;;;;;;5010921;23;20212;-89
2024/04/06 10:28:24;;;;;;;3.28;1.33;;;20.30;1.00;;;;;;5031223;23;20178;-88
2024/04/06 10:30:41;;;;;;;5.63;1.10;;;20.40;1.00;;;;;;5010574;23;20238;-88
2024/04/06 10:32:58;;;;;;;3.05;1.05;;;20.40;1.00;;;;;;5010712;23;20178;-88
2024/04/06 10:35:15;;;;;;;2.40;1.13;;;20.40;1.00;;;;;;5010953;23;20195;-88
2024/04/06 10:37:35;;;;;;;3.65;1.13;;;20.40;1.00;;;;;;5010967;23;20167;-87
2024/04/06 10:39:53;;;;;;;2.95;1.15;;;20.40;1.00;;;;;;5032864;23;20278;-94
2024/04/06 10:42:10;;;;;;;4.05;1.05;;;20.50;1.00;;;;;;5010574;23;20245;-88
2024/04/06 10:44:27;;;;;;;5.38;1.25;;;20.50;1.00;;;;;;5009988;23;20180;-88
2024/04/06 10:46:45;;;;;;;4.70;1.00;;;20.50;1.00;;;;;;5031373;23;20703;-91
2024/04/06 10:49:08;;;;;;;1.92;1.00;;;20.50;1.00;;;;;;5030845;23;20557;-88
2024/04/06 10:51:26;;;;;;;3.10;1.02;;;20.60;1.00;;;;;;5031143;23;20660;-89
2024/04/06 10:53:44;;;;;;;3.38;0.98;;;20.60;1.00;;;;;;5009939;23;20175;-92
2024/04/06 10:56:03;;;;;;;5.60;1.40;;;20.70;1.00;;;;;;5030943;23;20226;-92
2024/04/06 10:58:21;;;;;;;4.40;1.27;;;20.80;1.00;;;;;;5010980;23;20190;-89
2024/04/06 11:00:40;;;;;;;2.50;0.82;;;20.80;1.00;;;;;;5031906;23;20169;-92
2024/04/06 11:03:01;;;;;;;3.65;1.10;;;20.90;1.00;;;;;;5010915;23;20200;-88
2024/04/06 11:05:18;;;;;;;3.35;0.82;;;21.00;1.00;;;;;;5032657;23;20174;-89
2024/04/06 11:07:41;;;;;;;5.70;1.63;;;21.00;1.00;;;;;;5012477;23;20184;-94
2024/04/06 11:09:59;;;;;;;2.20;0.98;;;21.20;1.00;;;;;;5012308;23;20212;-91
2024/04/06 11:12:17;;;;;;;5.15;1.20;;;21.30;1.00;;;;;;5012367;23;20180;-90
2024/04/06 11:14:34;;;;;;;3.47;0.90;;;21.40;1.00;;;;;;4992106;23;20182;-88
2024/04/06 11:16:53;;;;;;;3.85;1.48;;;21.40;1.00;;;;;;5012716;23;20673;-92
2024/04/06 11:19:16;;;;;;;4.30;1.05;;;21.40;1.00;;;;;;5012399;23;20639;-90
2024/04/06 11:21:35;;;;;;;3.83;1.08;;;21.40;1.00;;;;;;5011868;23;20171;-87
2024/04/06 11:23:52;;;;;;;2.83;0.70;;;21.40;1.00;;;;;;5033318;23;20198;-90
2024/04/06 11:26:10;;;;;;;6.68;1.42;;;21.50;1.00;;;;;;5033676;23;20222;-89
2024/04/06 11:28:30;;;;;;;2.80;0.85;;;21.60;1.00;;;;;;5031870;23;20251;-89
2024/04/06 11:30:47;;;;;;;4.20;0.85;;;21.60;1.00;;;;;;5032325;23;20175;-89
2024/04/06 11:33:05;;;;;;;2.83;0.88;;;21.70;1.00;;;;;;5032489;23;20178;-90
2024/04/06 11:35:22;;;;;;;2.90;0.85;;;21.80;1.00;;;;;;5011472;23;20278;-89
2024/04/06 11:37:40;;;;;;;2.22;0.93;;;21.80;1.00;;;;;;5032634;23;20262;-89
2024/04/06 11:39:58;;;;;;;4.22;0.95;;;21.90;1.00;;;;;;5032755;23;20208;-89
2024/04/06 11:42:16;;;;;;;4.70;1.35;;;21.90;1.00;;;;;;5033388;23;20568;-89
2024/04/06 11:44:34;;;;;;;4.00;0.88;;;21.90;1.00;;;;;;5033909;23;20223;-89
2024/04/06 11:46:52;;;;;;;6.70;1.13;;;21.90;1.00;;;;;;5011554;23;20223;-89
2024/04/06 11:49:09;;;;;;;2.83;0.82;;;22.00;1.00;;;;;;5033889;23;20170;-89
2024/04/06 11:51:29;;;;;;;4.50;0.77;;;22.00;1.00;;;;;;5012019;23;20283;-89
2024/04/06 11:53:48;;;;;;;5.55;1.00;;;22.10;1.00;;;;;;5012514;23;20175;-90
2024/04/06 11:56:05;;;;;;;1.77;0.80;;;22.20;1.00;;;;;;5033313;23;20221;-89
2024/04/06 11:58:22;;;;;;;2.70;0.77;;;22.30;1.00;;;;;;5012459;23;20218;-89
2024/04/06 12:00:40;;;;;;;3.70;0.80;;;22.40;1.00;;;;;;5033082;23;20299;-89